Time;durP1;ratioP1;P1;durP2;ratioP2;P2;SDS_P1;SDS_P2;PMS_P1;PMS_P2;Temp;Humidity;BMP_temperature;BMP_pressure;BME280_temperature;BME280_humidity;BME280_pressure;Samples;Min_cycle;Max_cycle;Signal;HPM_P1;HPM_P2
2021/08/21 00:01:36;;;;;;;10.53;7.90;;;16.90;99.90;;;;;;5109923;28;20485;-68
2021/08/21 00:04:07;;;;;;;10.30;8.53;;;16.90;99.90;;;;;;5110367;28;20540;-68
2021/08/21 00:06:34;;;;;;;10.83;9.53;;;16.90;99.90;;;;;;5110094;28;20540;-68
2021/08/21 00:09:01;;;;;;;9.70;8.70;;;16.80;99.90;;;;;;5109321;28;20445;-67
2021/08/21 00:11:28;;;;;;;9.63;8.10;;;16.70;99.90;;;;;;5109938;28;20461;-67
2021/08/21 00:13:55;;;;;;;9.70;8.77;;;16.70;99.90;;;;;;5110099;28;20451;-67
2021/08/21 00:16:22;;;;;;;9.23;8.33;;;16.60;99.90;;;;;;5109767;28;20449;-67
2021/08/21 00:18:48;;;;;;;10.90;8.87;;;16.60;99.90;;;;;;5109878;28;20832;-68
2021/08/21 00:21:17;;;;;;;9.50;8.47;;;16.50;99.90;;;;;;5109268;28;20524;-68
2021/08/21 00:23:44;;;;;;;10.33;8.83;;;16.50;99.90;;;;;;5109998;28;20449;-68
2021/08/21 00:26:11;;;;;;;10.53;8.40;;;16.40;99.90;;;;;;5109307;28;20445;-69
2021/08/21 00:28:38;;;;;;;12.10;9.60;;;16.40;99.90;;;;;;5109522;28;20467;-68
2021/08/21 00:31:06;;;;;;;10.17;9.00;;;16.30;99.90;;;;;;5109151;28;20467;-68
2021/08/21 00:33:33;;;;;;;9.20;8.40;;;16.30;99.90;;;;;;5110143;28;20445;-67
2021/08/21 00:36:00;;;;;;;9.97;8.97;;;16.20;99.90;;;;;;5109894;28;20459;-68
2021/08/21 00:38:28;;;;;;;10.20;9.20;;;16.20;99.90;;;;;;5109990;28;20865;-67
2021/08/21 00:40:55;;;;;;;10.97;9.97;;;16.20;99.90;;;;;;5106934;28;20867;-69
2021/08/21 00:43:22;;;;;;;10.80;8.90;;;16.10;99.90;;;;;;5109933;28;20497;-67
2021/08/21 00:45:49;;;;;;;10.07;8.90;;;16.00;99.90;;;;;;5109507;28;20943;-67
2021/08/21 00:48:16;;;;;;;11.17;10.00;;;15.80;99.90;;;;;;5109919;28;20445;-67
2021/08/21 00:50:43;;;;;;;12.27;9.83;;;15.80;99.90;;;;;;5108903;28;20479;-68
2021/08/21 00:53:10;;;;;;;13.03;9.90;;;15.60;99.90;;;;;;5109768;28;20457;-69
2021/08/21 00:55:39;;;;;;;10.63;9.57;;;15.60;99.90;;;;;;5109537;28;20485;-67
2021/08/21 00:58:05;;;;;;;10.83;9.73;;;15.50;99.90;;;;;;5110105;28;20456;-67
2021/08/21 01:00:34;;;;;;;14.07;10.27;;;15.40;99.90;;;;;;5109002;28;20552;-67
2021/08/21 01:03:01;;;;;;;11.60;10.50;;;15.40;99.90;;;;;;5110119;28;20441;-67
2021/08/21 01:05:28;;;;;;;13.43;10.90;;;15.40;99.90;;;;;;5109467;28;20445;-67
2021/08/21 01:07:55;;;;;;;11.20;9.30;;;15.30;99.90;;;;;;5109440;28;20442;-67
2021/08/21 01:10:21;;;;;;;12.20;11.00;;;15.30;99.90;;;;;;5108890;28;20463;-67
2021/08/21 01:12:52;;;;;;;11.80;10.70;;;15.30;99.90;;;;;;5110301;28;20438;-67
2021/08/21 01:15:19;;;;;;;12.60;11.40;;;15.20;99.90;;;;;;5113269;28;20443;-67
2021/08/21 01:17:46;;;;;;;12.40;11.10;;;15.20;99.90;;;;;;5113568;28;20795;-66
2021/08/21 01:20:14;;;;;;;14.10;12.80;;;15.10;99.90;;;;;;5112148;28;20544;-67
2021/08/21 01:22:40;;;;;;;12.70;11.50;;;15.10;99.90;;;;;;5112980;28;20480;-67
2021/08/21 01:25:11;;;;;;;12.40;11.10;;;15.10;99.90;;;;;;5112922;28;20433;-67
2021/08/21 01:27:40;;;;;;;12.80;11.23;;;15.10;99.90;;;;;;5113204;28;20441;-68
2021/08/21 01:30:09;;;;;;;13.07;10.83;;;15.10;99.90;;;;;;5112471;28;20817;-68
2021/08/21 01:32:36;;;;;;;13.63;11.60;;;15.00;99.90;;;;;;5113395;28;20471;-68
2021/08/21 01:35:03;;;;;;;12.23;11.03;;;15.00;99.90;;;;;;5112498;28;21021;-69
2021/08/21 01:37:30;;;;;;;13.20;11.87;;;14.90;99.90;;;;;;5113227;28;20449;-66
2021/08/21 01:39:57;;;;;;;12.70;11.40;;;14.90;99.90;;;;;;5112201;28;20448;-67
2021/08/21 01:42:25;;;;;;;12.00;10.90;;;14.90;99.90;;;;;;5113010;28;20477;-67
2021/08/21 01:44:53;;;;;;;12.33;11.13;;;14.90;99.90;;;;;;5112361;28;20457;-67
2021/08/21 01:47:21;;;;;;;12.57;11.27;;;14.80;99.90;;;;;;5112827;28;20467;-68
2021/08/21 01:49:54;;;;;;;13.27;12.07;;;14.80;99.90;;;;;;5112165;28;20455;-67
2021/08/21 01:52:21;;;;;;;13.03;11.60;;;14.80;99.90;;;;;;5112624;28;20599;-67
2021/08/21 01:54:48;;;;;;;11.63;10.53;;;14.90;99.90;;;;;;5112401;28;20539;-68
2021/08/21 01:57:15;;;;;;;13.77;12.17;;;14.90;99.90;;;;;;5112382;28;20568;-68
2021/08/21 01:59:43;;;;;;;13.20;12.00;;;14.90;99.90;;;;;;5111713;28;20452;-67
2021/08/21 02:02:14;;;;;;;13.10;11.80;;;14.80;99.90;;;;;;5112471;28;20484;-67
2021/08/21 02:04:41;;;;;;;12.33;11.13;;;14.70;99.90;;;;;;5112633;28;20476;-67
2021/08/21 02:07:08;;;;;;;12.97;11.60;;;14.70;99.90;;;;;;5112364;28;20817;-67
2021/08/21 02:09:35;;;;;;;15.00;13.70;;;14.80;99.90;;;;;;5111863;28;20445;-68
2021/08/21 02:12:04;;;;;;;14.47;13.00;;;14.80;99.90;;;;;;5112442;28;20838;-68
2021/08/21 02:14:31;;;;;;;12.67;11.47;;;14.80;99.90;;;;;;5111991;28;20967;-68
2021/08/21 02:16:59;;;;;;;12.63;11.33;;;14.80;99.90;;;;;;5112564;28;20795;-67
2021/08/21 02:19:28;;;;;;;13.37;12.17;;;14.80;99.90;;;;;;5111499;28;20843;-67
2021/08/21 02:21:57;;;;;;;13.73;12.33;;;14.70;99.90;;;;;;5112154;27;20485;-67
2021/08/21 02:24:25;;;;;;;13.90;12.43;;;14.80;99.90;;;;;;5110758;28;20636;-67
2021/08/21 02:26:53;;;;;;;13.60;12.30;;;14.80;99.90;;;;;;5112229;28;20541;-67
2021/08/21 02:29:20;;;;;;;12.00;10.90;;;14.90;99.90;;;;;;5111296;28;20784;-67
2021/08/21 02:31:47;;;;;;;12.80;11.40;;;14.90;99.90;;;;;;5112237;28;20468;-68
2021/08/21 02:34:14;;;;;;;12.93;11.13;;;14.90;99.90;;;;;;5111898;28;20473;-67
2021/08/21 02:36:43;;;;;;;15.87;11.47;;;14.90;99.90;;;;;;5111988;28;20531;-67
2021/08/21 02:39:10;;;;;;;13.63;12.33;;;14.90;99.90;;;;;;5110954;28;21025;-68
2021/08/21 02:41:37;;;;;;;13.87;12.47;;;15.00;99.90;;;;;;5111860;28;20548;-67
2021/08/21 02:44:05;;;;;;;12.20;11.10;;;15.00;99.90;;;;;;5111726;28;20521;-67
2021/08/21 02:46:32;;;;;;;11.27;10.27;;;15.00;99.90;;;;;;5111301;28;20447;-68
2021/08/21 02:48:59;;;;;;;12.53;10.57;;;15.10;99.90;;;;;;5110925;28;20436;-67
2021/08/21 02:51:26;;;;;;;12.00;10.83;;;15.10;99.90;;;;;;5110977;28;20473;-67
2021/08/21 02:53:54;;;;;;;12.60;11.17;;;15.10;99.90;;;;;;5111371;28;20452;-68
2021/08/21 02:56:21;;;;;;;12.40;11.10;;;15.00;99.90;;;;;;5110957;28;20475;-68
2021/08/21 02:58:48;;;;;;;13.00;11.70;;;15.00;99.90;;;;;;5111498;28;20449;-68
2021/08/21 03:01:15;;;;;;;13.40;12.00;;;15.00;99.90;;;;;;5110507;28;20483;-68
2021/08/21 03:03:42;;;;;;;13.50;12.30;;;14.90;99.90;;;;;;5111289;28;20541;-67
2021/08/21 03:06:09;;;;;;;13.47;12.17;;;14.90;99.90;;;;;;5111105;28;20445;-67
2021/08/21 03:08:36;;;;;;;12.97;11.67;;;14.80;99.90;;;;;;5111058;28;20451;-67
2021/08/21 03:11:04;;;;;;;13.50;11.53;;;14.80;99.90;;;;;;5110435;28;20552;-67
2021/08/21 03:13:31;;;;;;;12.83;11.63;;;14.80;99.90;;;;;;5111421;28;20450;-68
2021/08/21 03:15:58;;;;;;;13.73;12.43;;;14.70;99.90;;;;;;5110785;28;20438;-67
2021/08/21 03:18:25;;;;;;;15.30;11.97;;;14.70;99.90;;;;;;5111013;28;20532;-67
2021/08/21 03:20:52;;;;;;;12.63;11.43;;;14.60;99.90;;;;;;5110217;28;20983;-67
2021/08/21 03:23:19;;;;;;;14.30;12.80;;;14.60;99.90;;;;;;5110894;28;20481;-68
2021/08/21 03:25:46;;;;;;;13.10;11.80;;;14.50;99.90;;;;;;5110746;28;20445;-67
2021/08/21 03:28:14;;;;;;;12.10;11.00;;;14.50;99.90;;;;;;5111019;28;20455;-67
2021/08/21 03:30:41;;;;;;;12.40;11.20;;;14.50;99.90;;;;;;5110102;28;20469;-67
2021/08/21 03:33:09;;;;;;;12.70;11.53;;;14.50;99.90;;;;;;5111001;28;20444;-68
2021/08/21 03:35:36;;;;;;;12.93;11.57;;;14.40;99.90;;;;;;5109869;28;20452;-68
2021/08/21 03:38:03;;;;;;;12.73;11.20;;;14.40;99.90;;;;;;5110633;28;20540;-68
2021/08/21 03:40:30;;;;;;;14.33;12.93;;;14.30;99.90;;;;;;5109910;28;20471;-67
2021/08/21 03:42:57;;;;;;;14.50;13.00;;;14.30;99.90;;;;;;5110723;28;20843;-68
2021/08/21 03:45:26;;;;;;;12.70;11.53;;;14.20;99.90;;;;;;5110266;28;20440;-67
2021/08/21 03:47:52;;;;;;;12.67;11.40;;;14.10;99.90;;;;;;5110636;28;20448;-67
2021/08/21 03:50:19;;;;;;;14.43;12.80;;;14.10;99.90;;;;;;5109763;28;20467;-67
2021/08/21 03:52:46;;;;;;;13.83;12.40;;;14.10;99.90;;;;;;5110522;28;20452;-68
2021/08/21 03:55:14;;;;;;;13.07;11.73;;;14.10;99.90;;;;;;5110110;28;20448;-68
2021/08/21 03:57:41;;;;;;;15.57;14.10;;;14.10;99.90;;;;;;5110443;28;20452;-67
2021/08/21 04:00:09;;;;;;;14.43;13.00;;;14.10;99.90;;;;;;5109577;28;20748;-68
2021/08/21 04:02:38;;;;;;;12.83;11.63;;;14.00;99.90;;;;;;5110163;28;20576;-67
2021/08/21 04:05:05;;;;;;;13.30;11.97;;;14.00;99.90;;;;;;5109665;28;20484;-68
2021/08/21 04:07:32;;;;;;;13.90;12.60;;;14.00;99.90;;;;;;5110370;28;20449;-67
2021/08/21 04:09:59;;;;;;;13.30;11.87;;;14.00;99.90;;;;;;5109688;28;20437;-67
2021/08/21 04:12:26;;;;;;;15.10;13.07;;;14.00;99.90;;;;;;5110085;28;20942;-67
2021/08/21 04:14:53;;;;;;;13.20;11.90;;;14.00;99.90;;;;;;5109800;28;20504;-68
2021/08/21 04:17:20;;;;;;;15.03;12.37;;;14.00;99.90;;;;;;5110071;28;20443;-67
2021/08/21 04:19:48;;;;;;;13.57;12.27;;;13.90;99.90;;;;;;5109207;28;20534;-67
2021/08/21 04:22:16;;;;;;;12.67;11.47;;;13.90;99.90;;;;;;5109927;28;20484;-67
2021/08/21 04:24:43;;;;;;;12.67;11.47;;;13.90;99.90;;;;;;5109725;28;20449;-68
2021/08/21 04:27:10;;;;;;;13.30;12.00;;;13.90;99.90;;;;;;5110549;28;20441;-67
2021/08/21 04:29:36;;;;;;;13.53;12.10;;;14.00;99.90;;;;;;5109601;28;20468;-68
2021/08/21 04:32:04;;;;;;;15.10;12.00;;;13.90;99.90;;;;;;5110225;28;20769;-67
2021/08/21 04:34:34;;;;;;;12.43;11.13;;;14.00;99.90;;;;;;5109597;28;20449;-67
2021/08/21 04:37:03;;;;;;;14.07;11.63;;;14.00;99.90;;;;;;5110541;28;20456;-68
2021/08/21 04:39:30;;;;;;;13.43;12.23;;;14.00;99.90;;;;;;5109584;28;20528;-67
2021/08/21 04:41:57;;;;;;;13.43;12.13;;;14.00;99.90;;;;;;5109735;28;20853;-67
2021/08/21 04:44:24;;;;;;;12.63;10.50;;;14.00;99.90;;;;;;5109798;28;20441;-67
2021/08/21 04:46:51;;;;;;;12.87;11.50;;;14.00;99.90;;;;;;5110338;28;20895;-68
2021/08/21 04:49:18;;;;;;;13.00;11.60;;;14.10;99.90;;;;;;5112754;28;20871;-67
2021/08/21 04:51:45;;;;;;;13.60;12.30;;;14.20;99.90;;;;;;5114010;28;20472;-67
2021/08/21 04:54:13;;;;;;;13.80;12.50;;;14.30;99.90;;;;;;5113972;28;20451;-68
2021/08/21 04:56:40;;;;;;;13.23;11.93;;;14.30;99.90;;;;;;5113966;28;20441;-67
2021/08/21 04:59:06;;;;;;;13.50;12.10;;;14.40;99.90;;;;;;5112887;28;21021;-67
2021/08/21 05:01:33;;;;;;;12.00;10.30;;;14.50;99.90;;;;;;5113747;28;20469;-68
2021/08/21 05:04:00;;;;;;;12.23;11.03;;;14.60;99.90;;;;;;5113641;28;20473;-68
2021/08/21 05:06:27;;;;;;;10.83;9.77;;;14.60;99.90;;;;;;5113271;28;20448;-67
2021/08/21 05:08:54;;;;;;;12.37;11.10;;;14.70;99.90;;;;;;5113962;28;20447;-67
2021/08/21 05:11:22;;;;;;;10.70;9.73;;;14.70;99.90;;;;;;5112690;28;20567;-67
2021/08/21 05:13:49;;;;;;;12.70;10.80;;;14.80;99.90;;;;;;5113198;28;20447;-67
2021/08/21 05:16:16;;;;;;;11.13;10.03;;;14.90;99.90;;;;;;5112913;28;20449;-68
2021/08/21 05:18:46;;;;;;;10.57;9.47;;;15.10;99.90;;;;;;5113742;28;20467;-67
2021/08/21 05:21:24;;;;;;;11.23;10.13;;;15.20;99.90;;;;;;5112861;28;20495;-67
2021/08/21 05:23:51;;;;;;;11.60;9.60;;;15.30;99.90;;;;;;5113595;28;20998;-68
2021/08/21 05:26:18;;;;;;;10.13;9.23;;;15.30;99.90;;;;;;5112934;28;20441;-67
2021/08/21 05:28:46;;;;;;;9.93;8.93;;;15.30;99.90;;;;;;5112942;28;20454;-68
2021/08/21 05:31:13;;;;;;;10.60;8.90;;;15.30;99.90;;;;;;5112417;28;20465;-67
2021/08/21 05:33:40;;;;;;;9.50;8.50;;;15.50;99.90;;;;;;5113192;28;20445;-68
2021/08/21 05:36:06;;;;;;;11.23;8.90;;;15.70;99.90;;;;;;5112851;28;20617;-68
2021/08/21 05:38:34;;;;;;;9.57;8.67;;;15.80;99.90;;;;;;5112840;28;20453;-67
2021/08/21 05:41:00;;;;;;;9.50;8.60;;;15.80;99.90;;;;;;5112128;28;21244;-67
2021/08/21 05:43:27;;;;;;;10.67;9.60;;;15.90;99.90;;;;;;5112815;28;20477;-67
2021/08/21 05:45:55;;;;;;;11.27;9.60;;;16.10;99.90;;;;;;5112519;28;20449;-68
2021/08/21 05:48:22;;;;;;;9.13;8.27;;;16.10;99.90;;;;;;5112595;28;20448;-67
2021/08/21 05:50:49;;;;;;;8.47;7.67;;;16.30;99.90;;;;;;5111445;28;20465;-67
2021/08/21 05:53:16;;;;;;;11.13;10.03;;;16.30;99.90;;;;;;5112374;28;20441;-67
2021/08/21 05:55:43;;;;;;;10.00;9.10;;;16.40;99.90;;;;;;5112068;28;20447;-68
2021/08/21 05:58:10;;;;;;;9.90;8.97;;;16.50;99.90;;;;;;5112145;28;20898;-68
2021/08/21 06:00:36;;;;;;;10.33;9.27;;;16.50;99.90;;;;;;5111573;28;20464;-68
2021/08/21 06:03:05;;;;;;;11.00;7.77;;;16.70;99.90;;;;;;5112212;28;20477;-67
2021/08/21 06:05:32;;;;;;;8.53;7.77;;;16.80;99.90;;;;;;5111970;28;21100;-68
2021/08/21 06:07:59;;;;;;;11.43;8.63;;;16.90;99.90;;;;;;5112298;28;20539;-68
2021/08/21 06:10:26;;;;;;;9.80;8.90;;;17.00;99.90;;;;;;5111320;28;20471;-68
2021/08/21 06:12:53;;;;;;;9.07;8.17;;;17.10;99.90;;;;;;5112432;28;20836;-68
2021/08/21 06:15:20;;;;;;;8.73;7.83;;;17.30;99.90;;;;;;5112020;28;20532;-68
2021/08/21 06:17:46;;;;;;;8.40;7.60;;;17.40;99.90;;;;;;5112065;28;20453;-68
2021/08/21 06:20:15;;;;;;;9.27;8.37;;;17.40;99.90;;;;;;5111216;28;20453;-67
2021/08/21 06:22:42;;;;;;;9.47;8.57;;;17.30;99.90;;;;;;5112080;28;20907;-67
2021/08/21 06:25:10;;;;;;;9.80;8.60;;;17.40;99.90;;;;;;5111639;28;20441;-68
2021/08/21 06:27:37;;;;;;;9.73;8.83;;;17.40;99.90;;;;;;5112427;28;20441;-68
2021/08/21 06:30:05;;;;;;;9.20;7.77;;;17.50;99.90;;;;;;5111143;28;20445;-68
2021/08/21 06:32:31;;;;;;;9.40;8.40;;;17.60;99.90;;;;;;5112242;28;20445;-68
2021/08/21 06:34:58;;;;;;;10.47;8.47;;;17.70;99.90;;;;;;5111618;28;20888;-68
2021/08/21 06:37:27;;;;;;;10.33;8.33;;;17.60;99.90;;;;;;5111671;28;20457;-68
2021/08/21 06:39:53;;;;;;;8.50;7.63;;;17.60;99.90;;;;;;5110964;28;20449;-68
2021/08/21 06:42:21;;;;;;;9.93;7.90;;;17.70;99.90;;;;;;5110052;28;20455;-68
2021/08/21 06:44:47;;;;;;;9.80;8.90;;;17.60;99.90;;;;;;5111735;28;20477;-68
2021/08/21 06:47:14;;;;;;;9.37;8.47;;;17.60;99.90;;;;;;5111970;28;20451;-68
2021/08/21 06:49:42;;;;;;;10.27;8.77;;;17.80;99.90;;;;;;5110760;28;20468;-68
2021/08/21 06:52:08;;;;;;;12.20;9.97;;;17.90;99.90;;;;;;5111195;28;20544;-68
2021/08/21 06:54:37;;;;;;;9.40;8.13;;;17.90;99.90;;;;;;5111013;28;20448;-68
2021/08/21 06:57:04;;;;;;;9.50;8.20;;;18.00;99.90;;;;;;5111146;28;20821;-68
2021/08/21 06:59:31;;;;;;;11.10;8.57;;;18.10;99.90;;;;;;5110622;28;20448;-68
2021/08/21 07:01:58;;;;;;;12.47;8.20;;;18.30;99.90;;;;;;5111046;28;20465;-68
2021/08/21 07:04:24;;;;;;;9.80;8.73;;;18.30;99.90;;;;;;5110562;28;20488;-68
2021/08/21 07:06:51;;;;;;;9.60;7.67;;;18.40;99.90;;;;;;5111203;28;20833;-68
2021/08/21 07:09:18;;;;;;;9.13;8.23;;;18.60;99.90;;;;;;5110111;28;20548;-67
2021/08/21 07:11:46;;;;;;;9.20;8.30;;;18.70;99.90;;;;;;5110322;28;20457;-67
2021/08/21 07:14:13;;;;;;;10.23;7.90;;;18.70;99.90;;;;;;5110775;28;20805;-67
2021/08/21 07:16:40;;;;;;;8.70;7.80;;;18.70;99.90;;;;;;5110984;28;20441;-68
2021/08/21 07:19:07;;;;;;;12.30;8.83;;;18.80;99.90;;;;;;5110104;28;20544;-68
2021/08/21 07:21:34;;;;;;;10.50;8.10;;;18.70;99.90;;;;;;5110763;28;20918;-68
2021/08/21 07:24:01;;;;;;;9.30;8.40;;;18.90;99.90;;;;;;5110918;28;20928;-68
2021/08/21 07:26:29;;;;;;;10.20;9.20;;;19.00;99.90;;;;;;5110222;28;20433;-68
2021/08/21 07:28:57;;;;;;;9.40;8.40;;;19.10;99.90;;;;;;5110554;28;20455;-68
2021/08/21 07:31:24;;;;;;;9.20;8.30;;;19.20;99.90;;;;;;5110544;28;20473;-67
2021/08/21 07:33:50;;;;;;;9.40;8.40;;;19.30;99.90;;;;;;5110836;28;20562;-68
2021/08/21 07:36:17;;;;;;;9.60;8.67;;;19.30;99.90;;;;;;5110316;28;20444;-67
2021/08/21 07:38:45;;;;;;;10.03;8.53;;;19.40;99.90;;;;;;5110906;28;20480;-68
2021/08/21 07:41:12;;;;;;;9.37;8.43;;;19.50;99.90;;;;;;5109268;28;20548;-67
2021/08/21 07:43:39;;;;;;;9.90;8.90;;;19.60;99.90;;;;;;5110375;28;20480;-68
2021/08/21 07:46:07;;;;;;;9.10;8.00;;;19.60;99.90;;;;;;5110103;28;20540;-68
2021/08/21 07:48:34;;;;;;;12.20;8.23;;;19.80;99.90;;;;;;5110414;28;20441;-68
2021/08/21 07:51:00;;;;;;;9.40;8.00;;;19.90;99.90;;;;;;5109621;28;20577;-68
2021/08/21 07:53:28;;;;;;;9.47;7.20;;;20.10;99.90;;;;;;5110607;28;20441;-68
2021/08/21 07:55:54;;;;;;;7.37;6.67;;;20.30;99.90;;;;;;5109752;28;20536;-67
2021/08/21 07:58:21;;;;;;;7.60;6.80;;;20.40;99.90;;;;;;5110762;28;20445;-68
2021/08/21 08:00:48;;;;;;;9.17;6.60;;;20.50;99.90;;;;;;5109565;28;20549;-68
2021/08/21 08:03:16;;;;;;;9.30;7.30;;;20.70;99.90;;;;;;5109096;28;20534;-68
2021/08/21 08:05:44;;;;;;;9.33;7.40;;;20.90;99.90;;;;;;5109874;28;20282;-68
2021/08/21 08:08:11;;;;;;;7.20;6.50;;;21.00;99.90;;;;;;5109867;28;20474;-68
2021/08/21 08:10:38;;;;;;;7.43;6.63;;;21.00;99.90;;;;;;5109284;28;20472;-68
2021/08/21 08:13:05;;;;;;;7.60;6.57;;;21.10;99.90;;;;;;5109949;28;20441;-68
2021/08/21 08:15:32;;;;;;;7.53;6.70;;;21.10;99.90;;;;;;5109723;28;20533;-67
2021/08/21 08:17:59;;;;;;;7.13;6.43;;;21.20;99.90;;;;;;5110175;28;20565;-67
2021/08/21 08:20:27;;;;;;;8.03;6.50;;;21.30;99.90;;;;;;5109116;28;20483;-67
2021/08/21 08:22:54;;;;;;;7.63;6.83;;;21.40;99.90;;;;;;5112714;28;20448;-67
2021/08/21 08:25:21;;;;;;;9.90;8.60;;;21.50;99.90;;;;;;5113880;28;20468;-67
2021/08/21 08:27:48;;;;;;;6.50;5.90;;;21.60;99.90;;;;;;5114387;28;20437;-67
2021/08/21 08:30:16;;;;;;;6.53;5.83;;;21.70;99.90;;;;;;5113513;28;20528;-67
2021/08/21 08:32:43;;;;;;;8.50;5.80;;;21.80;99.90;;;;;;5114166;28;20473;-68
2021/08/21 08:35:11;;;;;;;6.33;5.63;;;21.90;99.90;;;;;;5113653;28;20437;-67
2021/08/21 08:37:41;;;;;;;7.33;5.40;;;22.00;99.90;;;;;;5113754;28;20457;-67
2021/08/21 08:40:09;;;;;;;6.67;5.70;;;22.20;99.90;;;;;;5113126;28;20429;-67
2021/08/21 08:42:39;;;;;;;6.13;5.50;;;22.30;99.90;;;;;;5113930;28;20459;-67
2021/08/21 08:45:08;;;;;;;7.13;5.80;;;22.30;99.90;;;;;;5113431;28;20480;-67
2021/08/21 08:47:36;;;;;;;6.30;5.70;;;22.40;99.90;;;;;;5113715;28;20437;-67
2021/08/21 08:50:05;;;;;;;6.93;5.30;;;22.60;99.90;;;;;;5112709;28;20445;-67
2021/08/21 08:52:33;;;;;;;8.77;5.80;;;22.70;99.90;;;;;;5114012;28;20525;-67
2021/08/21 08:55:01;;;;;;;6.87;5.17;;;22.80;99.90;;;;;;5113703;28;20820;-67
2021/08/21 08:57:35;;;;;;;5.43;4.80;;;23.00;99.90;;;;;;5114002;28;20787;-67
2021/08/21 09:00:02;;;;;;;5.87;5.27;;;23.10;99.90;;;;;;5112983;28;20826;-67
2021/08/21 09:02:34;;;;;;;7.17;5.20;;;23.20;99.90;;;;;;5113561;28;20533;-68
2021/08/21 09:05:02;;;;;;;5.47;4.90;;;23.30;99.90;;;;;;5113607;28;20466;-68
2021/08/21 09:07:39;;;;;;;6.43;5.40;;;23.50;99.90;;;;;;5113738;28;20451;-68
2021/08/21 09:10:19;;;;;;;6.27;5.10;;;23.70;99.90;;;;;;5112722;28;20455;-68
2021/08/21 09:12:46;;;;;;;6.40;5.53;;;23.80;99.90;;;;;;5113275;28;20433;-68
2021/08/21 09:15:25;;;;;;;9.13;5.23;;;23.90;99.90;;;;;;5112962;28;20445;-68
2021/08/21 09:18:06;;;;;;;13.83;6.73;;;24.20;99.90;;;;;;5113509;28;20456;-67
2021/08/21 09:20:35;;;;;;;7.30;5.17;;;24.30;99.90;;;;;;5112383;28;20476;-68
2021/08/21 09:23:17;;;;;;;5.47;4.97;;;24.40;99.90;;;;;;5113550;28;20449;-68
2021/08/21 09:25:46;;;;;;;5.67;4.97;;;24.60;99.90;;;;;;5112968;28;20582;-68
2021/08/21 09:28:21;;;;;;;5.77;4.70;;;24.90;99.90;;;;;;5113240;28;20437;-68
2021/08/21 09:30:49;;;;;;;6.93;4.60;;;25.20;99.90;;;;;;5112246;28;20472;-68
2021/08/21 09:33:18;;;;;;;4.90;4.40;;;25.50;99.90;;;;;;5112803;28;20524;-68
2021/08/21 09:35:45;;;;;;;6.80;5.17;;;25.90;99.90;;;;;;5112479;28;20480;-68
2021/08/21 09:38:12;;;;;;;7.37;5.53;;;26.20;99.90;;;;;;5113144;28;20534;-69
2021/08/21 09:40:41;;;;;;;7.00;5.80;;;26.60;99.90;;;;;;5112209;28;20557;-69
2021/08/21 09:43:21;;;;;;;7.80;4.87;;;27.00;99.90;;;;;;5113193;28;20437;-68
2021/08/21 09:45:48;;;;;;;7.20;4.87;;;27.20;99.90;;;;;;5112551;28;20441;-68
2021/08/21 09:48:15;;;;;;;5.70;4.70;;;27.50;99.90;;;;;;5112443;28;20819;-69
2021/08/21 09:50:43;;;;;;;7.30;5.27;;;28.00;99.90;;;;;;5111829;28;21001;-68
2021/08/21 09:53:12;;;;;;;5.73;4.70;;;28.50;99.90;;;;;;5112995;28;20441;-69
2021/08/21 09:55:39;;;;;;;5.53;4.87;;;28.70;99.90;;;;;;5112412;28;20434;-68
2021/08/21 09:58:09;;;;;;;5.30;4.80;;;28.80;99.90;;;;;;5112549;28;20528;-69
2021/08/21 10:00:39;;;;;;;6.00;4.67;;;29.10;99.90;;;;;;5111650;28;20501;-69
2021/08/21 10:03:06;;;;;;;5.43;4.93;;;29.50;99.90;;;;;;5112246;28;20448;-69
2021/08/21 10:05:34;;;;;;;6.93;4.77;;;29.90;99.50;;;;;;5112155;28;20477;-68
2021/08/21 10:08:04;;;;;;;6.63;5.00;;;30.10;97.50;;;;;;5112402;28;20455;-69
2021/08/21 10:10:35;;;;;;;5.57;4.43;;;30.40;98.00;;;;;;5111748;27;20488;-69
2021/08/21 10:13:08;;;;;;;5.57;4.97;;;30.50;98.10;;;;;;5112345;28;20444;-69
2021/08/21 10:15:39;;;;;;;6.30;5.70;;;30.70;97.50;;;;;;5111922;28;20433;-69
2021/08/21 10:18:07;;;;;;;7.43;5.80;;;30.80;96.10;;;;;;5112472;28;20433;-68
2021/08/21 10:20:34;;;;;;;5.47;4.90;;;30.50;95.40;;;;;;5111081;28;20564;-68
2021/08/21 10:23:07;;;;;;;6.60;5.33;;;30.20;96.60;;;;;;5112210;28;20445;-69
2021/08/21 10:25:34;;;;;;;8.20;5.70;;;30.10;97.00;;;;;;5111530;28;20477;-69
2021/08/21 10:28:03;;;;;;;8.60;5.43;;;29.90;96.10;;;;;;5112023;28;20450;-69
2021/08/21 10:30:43;;;;;;;7.30;5.53;;;30.20;96.60;;;;;;5111126;28;20469;-69
2021/08/21 10:33:10;;;;;;;7.23;5.23;;;30.60;96.60;;;;;;5111995;28;20426;-69
2021/08/21 10:35:46;;;;;;;6.70;5.40;;;31.10;96.50;;;;;;5111435;28;20960;-68
2021/08/21 10:38:37;;;;;;;5.90;5.40;;;31.30;93.90;;;;;;5111716;28;20907;-69
2021/08/21 10:41:32;;;;;;;6.37;5.60;;;31.60;96.50;;;;;;5110844;28;21053;-69
2021/08/21 10:43:59;;;;;;;5.50;4.90;;;31.50;95.20;;;;;;5111756;28;20487;-68
2021/08/21 10:46:53;;;;;;;8.80;6.30;;;31.60;95.30;;;;;;5110437;28;21165;-68
2021/08/21 10:49:43;;;;;;;7.07;5.83;;;31.60;93.70;;;;;;5100685;27;20883;-68
2021/08/21 10:52:48;;;;;;;6.93;5.37;;;31.70;92.30;;;;;;5111945;28;20501;-68
2021/08/21 10:55:17;;;;;;;5.53;4.73;;;32.10;93.90;;;;;;5111302;28;20441;-68
2021/08/21 10:58:09;;;;;;;6.20;5.60;;;32.30;92.60;;;;;;5111366;28;20448;-68
2021/08/21 11:00:51;;;;;;;6.20;5.30;;;32.30;92.90;;;;;;5106499;28;20591;-68
2021/08/21 11:03:44;;;;;;;7.23;5.43;;;32.50;91.40;;;;;;5111364;28;20437;-68
2021/08/21 11:06:12;;;;;;;7.50;5.90;;;32.60;92.00;;;;;;5111070;27;20472;-68
2021/08/21 11:09:22;;;;;;;6.30;5.70;;;32.20;92.90;;;;;;5111300;28;20444;-68
2021/08/21 11:11:51;;;;;;;6.00;5.40;;;32.30;92.90;;;;;;5028409;28;20832;-68
2021/08/21 11:14:30;;;;;;;6.37;5.60;;;32.60;91.30;;;;;;5027933;28;20491;-68
2021/08/21 11:16:59;;;;;;;6.03;5.53;;;32.80;92.90;;;;;;5078430;28;20445;-68
2021/08/21 11:19:49;;;;;;;6.33;5.73;;;32.80;90.50;;;;;;5110540;28;20473;-68
2021/08/21 11:22:21;;;;;;;6.07;5.47;;;33.20;92.30;;;;;;5104555;28;20827;-68
2021/08/21 11:25:07;;;;;;;8.20;5.50;;;33.40;89.70;;;;;;5110505;28;20477;-68
2021/08/21 11:27:40;;;;;;;6.03;5.33;;;33.30;88.30;;;;;;5111203;28;20522;-68
2021/08/21 11:30:20;;;;;;;7.00;4.90;;;33.20;91.30;;;;;;5109634;28;20529;-68
2021/08/21 11:32:49;;;;;;;5.83;5.33;;;33.50;92.00;;;;;;5110801;28;20441;-68
2021/08/21 11:35:23;;;;;;;6.13;5.53;;;34.00;90.30;;;;;;5110318;28;20447;-68
2021/08/21 11:37:52;;;;;;;6.13;5.40;;;34.10;88.10;;;;;;5110783;28;20444;-69
2021/08/21 11:40:20;;;;;;;6.20;5.60;;;33.80;87.50;;;;;;5109502;28;21022;-69
2021/08/21 11:42:52;;;;;;;6.33;5.50;;;33.90;87.60;;;;;;5110291;28;20504;-69
2021/08/21 11:45:19;;;;;;;6.57;4.90;;;34.00;87.70;;;;;;5109940;28;20465;-68
2021/08/21 11:47:46;;;;;;;6.60;5.70;;;34.20;89.10;;;;;;5110370;28;20540;-68
2021/08/21 11:50:28;;;;;;;6.10;5.50;;;35.00;87.70;;;;;;5109727;28;20436;-68
2021/08/21 11:52:56;;;;;;;5.40;4.90;;;35.80;80.90;;;;;;5109982;28;20440;-69
2021/08/21 11:55:25;;;;;;;5.67;5.17;;;36.20;80.50;;;;;;5110066;28;20441;-68
2021/08/21 11:57:52;;;;;;;5.63;5.03;;;36.60;79.80;;;;;;5110118;28;20444;-68
2021/08/21 12:00:21;;;;;;;5.97;5.30;;;35.00;79.00;;;;;;5109521;28;20465;-68
2021/08/21 12:02:50;;;;;;;7.20;6.50;;;33.20;84.50;;;;;;5110262;28;20451;-68
2021/08/21 12:05:43;;;;;;;7.23;6.53;;;32.00;89.40;;;;;;5109841;28;20583;-68
2021/08/21 12:08:22;;;;;;;6.27;5.67;;;31.70;87.10;;;;;;5090750;28;20958;-68
2021/08/21 12:10:53;;;;;;;7.63;6.80;;;31.50;88.50;;;;;;5109285;28;20536;-68
2021/08/21 12:13:26;;;;;;;8.07;5.60;;;31.20;89.00;;;;;;5110190;28;20426;-68
2021/08/21 12:15:53;;;;;;;6.40;5.80;;;30.90;90.70;;;;;;5109553;28;20950;-68
2021/08/21 12:18:22;;;;;;;7.00;5.77;;;31.40;90.40;;;;;;5109773;28;21172;-68
2021/08/21 12:20:52;;;;;;;6.07;5.47;;;32.50;86.00;;;;;;5108952;28;21045;-68
2021/08/21 12:23:20;;;;;;;7.33;5.13;;;33.60;86.50;;;;;;5109879;28;20452;-68
2021/08/21 12:25:49;;;;;;;6.43;5.83;;;33.80;85.60;;;;;;5109291;28;20480;-68
2021/08/21 12:28:18;;;;;;;6.17;5.57;;;33.80;87.70;;;;;;5110232;28;20544;-69
2021/08/21 12:30:57;;;;;;;5.90;5.30;;;34.20;88.70;;;;;;5108794;28;20465;-69
2021/08/21 12:33:29;;;;;;;6.03;5.53;;;35.10;84.50;;;;;;5109972;28;20837;-69
2021/08/21 12:36:11;;;;;;;5.53;5.03;;;36.30;81.00;;;;;;5109485;28;20973;-68
2021/08/21 12:38:39;;;;;;;6.10;5.53;;;37.00;78.00;;;;;;5109725;28;20445;-68
2021/08/21 12:41:10;;;;;;;6.00;5.10;;;37.70;79.60;;;;;;5106779;28;20919;-69
2021/08/21 12:43:41;;;;;;;10.00;6.37;;;38.30;74.80;;;;;;5109948;28;20430;-68
2021/08/21 12:46:19;;;;;;;5.73;4.77;;;39.00;75.70;;;;;;5109588;28;20469;-68
2021/08/21 12:48:46;;;;;;;5.53;4.77;;;39.30;68.00;;;;;;5109878;28;20429;-68